createdAt,value
2023-03-16T00:02:13.198Z,65.41
2023-03-16T00:12:21.443Z,65.61
2023-03-16T00:22:28.411Z,65.11
2023-03-16T00:32:37.563Z,65.29
2023-03-16T00:42:45.213Z,65.13
2023-03-16T00:52:49.720Z,65.24
2023-03-16T01:02:55.473Z,65.37
2023-03-16T01:12:59.251Z,65.42
2023-03-16T01:23:02.864Z,65.24
2023-03-16T01:33:08.611Z,64.93
2023-03-16T01:43:14.183Z,64.87
2023-03-16T01:53:25.173Z,64.56
2023-03-16T02:03:37.262Z,64.61
2023-03-16T02:13:53.000Z,64.21
2023-03-16T02:23:57.556Z,64.19
2023-03-16T02:34:02.184Z,64.24
2023-03-16T02:44:16.380Z,64.29
2023-03-16T02:54:20.754Z,64.47
2023-03-16T03:04:25.134Z,64.65
2023-03-16T03:14:28.848Z,64.39
2023-03-16T03:24:34.855Z,64.04
2023-03-16T03:34:40.075Z,64.28
2023-03-16T03:44:47.903Z,64.41
2023-03-16T03:54:51.714Z,64.15
2023-03-16T04:04:57.235Z,64.23
2023-03-16T04:15:07.451Z,64.68
2023-03-16T04:25:18.933Z,64.81
2023-03-16T04:35:23.172Z,64.95
2023-03-16T04:45:33.046Z,64.86
2023-03-16T04:55:39.148Z,64.67
2023-03-16T05:05:43.684Z,64.45
2023-03-16T05:15:50.016Z,64.65
2023-03-16T05:26:04.588Z,64.42
2023-03-16T05:36:09.640Z,63.80
2023-03-16T05:46:18.947Z,61.98
2023-03-16T05:56:28.465Z,62.07
2023-03-16T06:06:33.281Z,61.84
2023-03-16T06:16:43.264Z,61.61
2023-03-16T06:26:47.506Z,61.15
2023-03-16T06:36:51.624Z,60.69
2023-03-16T06:46:59.131Z,60.50
2023-03-16T06:57:05.577Z,59.87
2023-03-16T07:07:12.261Z,59.85
2023-03-16T07:17:17.470Z,58.81
2023-03-16T07:27:23.566Z,58.76
2023-03-16T07:37:29.143Z,59.53
2023-03-16T07:47:34.935Z,60.02
2023-03-16T07:57:48.470Z,60.48
2023-03-16T08:07:59.346Z,60.86
2023-03-16T08:18:05.912Z,60.31
2023-03-16T08:28:13.024Z,59.95
2023-03-16T08:38:19.469Z,59.70
2023-03-16T08:48:26.918Z,60.04
2023-03-16T08:58:34.341Z,59.59
2023-03-16T09:08:41.068Z,59.27
2023-03-16T09:18:47.404Z,58.64
2023-03-16T09:29:14.977Z,57.03
2023-03-16T09:39:25.632Z,55.57
2023-03-16T09:49:50.348Z,54.73
2023-03-16T10:00:11.582Z,54.40
2023-03-16T10:10:33.534Z,53.65
2023-03-16T10:20:42.220Z,52.99
2023-03-16T10:30:53.945Z,52.86
2023-03-16T10:41:01.036Z,52.98
2023-03-16T10:51:15.379Z,53.43
2023-03-16T11:01:29.918Z,52.78
2023-03-16T11:11:34.317Z,52.16
2023-03-16T11:21:48.834Z,51.01
2023-03-16T11:31:58.088Z,50.24
2023-03-16T11:42:20.926Z,49.03
2023-03-16T11:53:12.521Z,48.20
2023-03-16T12:15:19.673Z,45.14
2023-03-16T12:25:34.835Z,45.07
2023-03-16T12:36:05.639Z,44.53
2023-03-16T12:46:54.476Z,44.83
2023-03-16T12:57:09.855Z,45.04
2023-03-16T13:07:25.781Z,45.80
2023-03-16T13:17:41.181Z,45.90
2023-03-16T13:27:50.273Z,45.08
2023-03-16T13:37:57.509Z,44.40
2023-03-16T13:48:05.685Z,44.10
2023-03-16T13:58:23.704Z,44.32
2023-03-16T14:08:28.504Z,44.88
2023-03-16T14:18:46.499Z,45.08
2023-03-16T14:28:58.786Z,45.90
2023-03-16T14:39:13.812Z,48.14
2023-03-16T14:49:43.248Z,52.10
2023-03-16T14:59:47.941Z,54.68
2023-03-16T15:09:55.410Z,55.38
2023-03-16T15:19:59.494Z,55.59
2023-03-16T15:30:20.113Z,56.30
2023-03-16T15:40:28.119Z,56.03
2023-03-16T15:50:36.245Z,56.37
2023-03-16T16:00:42.188Z,55.91
2023-03-16T16:10:47.602Z,55.79
2023-03-16T16:20:51.589Z,55.38
2023-03-16T17:08:59.412Z,55.72
2023-03-16T17:19:04.872Z,55.85
2023-03-16T17:42:48.897Z,56.57
2023-03-16T17:52:56.478Z,56.86
2023-03-16T18:03:15.224Z,57.61
2023-03-16T18:13:27.336Z,57.73
2023-03-16T18:23:36.271Z,58.73
2023-03-16T18:33:42.248Z,59.08
2023-03-16T18:43:47.740Z,60.00
2023-03-16T18:54:03.543Z,59.99
2023-03-16T19:04:40.085Z,60.03
2023-03-16T19:14:44.120Z,60.33
2023-03-16T19:24:53.052Z,60.83
2023-03-16T19:34:59.245Z,61.56
2023-03-16T19:45:10.219Z,62.39
2023-03-16T19:55:23.278Z,63.64
2023-03-16T20:05:29.875Z,64.81
2023-03-16T20:15:36.731Z,65.37
2023-03-16T20:25:42.452Z,66.06
2023-03-16T20:35:56.807Z,66.36
2023-03-16T20:46:04.288Z,66.41
2023-03-16T20:56:20.459Z,65.60
2023-03-16T21:06:30.172Z,65.67
2023-03-16T21:16:36.801Z,66.17
2023-03-16T21:26:43.256Z,66.18
2023-03-16T21:36:46.994Z,65.92
2023-03-16T21:46:54.104Z,66.55
2023-03-16T21:57:02.466Z,66.37
2023-03-16T22:07:12.620Z,65.27
2023-03-16T22:17:23.000Z,64.78
2023-03-16T22:27:26.628Z,64.34
2023-03-16T22:37:30.536Z,64.37
2023-03-16T22:47:37.130Z,64.17
2023-03-16T22:57:41.106Z,64.49
2023-03-16T23:07:48.581Z,64.29
2023-03-16T23:17:53.043Z,63.78
2023-03-16T23:28:02.904Z,64.06
2023-03-16T23:38:08.634Z,63.95
2023-03-16T23:48:22.654Z,64.11
2023-03-16T23:58:27.020Z,64.13
